Spring Creek, South Dakota
Current Conditions -  °F | °C
As of 7:52 PM on Sunday 21 Dec 2014 (Local Time) from KVTN Reporting Station
Broken Clouds Broken Clouds  
Wind Chill: 31°   Ceiling: 10000
Heat Index: 37°   Visibility: 10mi
Dew Point: 31°   Wind: 8mph
Humidity: 79%   Direction: 230°SW
Pressure: 29.42"   Gusts: NA
Location:  43.1381°N, 100.965°W
Report Text: KVTN 220152Z AUTO 23007KT 10SM BKN100 BKN120 03/M01 A2942 RMK AO2 SLP987 T00281006
Loading
Personal Weather Stations






























Interactive Weather Map New forecast layout! Learn more

10-Day Weather Forecast

Advertisements
Track Severe Weather on mobile